Time;durP1;ratioP1;P1;durP2;ratioP2;P2;SDS_P1;SDS_P2;PMS_P1;PMS_P2;Temp;Humidity;BMP_temperature;BMP_pressure;BME280_temperature;BME280_humidity;BME280_pressure;Samples;Min_cycle;Max_cycle;Signal;HPM_P1;HPM_P2
2023/08/14 00:02:04;;;;;;;9.52;6.68;;;15.70;99.90;;;;;;5047267;28;20422;-81
2023/08/14 00:04:29;;;;;;;10.88;7.13;;;15.70;99.90;;;;;;5034932;28;20429;-81
2023/08/14 00:06:55;;;;;;;10.50;6.67;;;15.60;99.90;;;;;;5019134;28;20433;-81
2023/08/14 00:09:21;;;;;;;9.53;6.93;;;15.70;99.90;;;;;;5024584;28;20443;-82
2023/08/14 00:11:47;;;;;;;10.90;7.03;;;15.70;99.90;;;;;;5039290;28;20515;-81
2023/08/14 00:14:12;;;;;;;9.90;7.13;;;15.80;99.90;;;;;;5001766;28;20447;-82
2023/08/14 00:16:38;;;;;;;9.88;7.13;;;15.60;99.90;;;;;;5053310;28;20472;-81
2023/08/14 00:19:04;;;;;;;9.48;6.78;;;15.30;99.90;;;;;;5018697;28;20437;-80
2023/08/14 00:21:30;;;;;;;9.70;7.28;;;15.60;99.90;;;;;;5051129;28;20516;-81
2023/08/14 00:23:55;;;;;;;9.07;7.03;;;15.50;99.90;;;;;;5018826;28;20753;-81
2023/08/14 00:26:21;;;;;;;10.43;6.97;;;15.60;99.90;;;;;;5026314;28;20935;-81
2023/08/14 00:28:47;;;;;;;9.25;6.70;;;15.60;99.90;;;;;;5019673;28;20451;-82
2023/08/14 00:31:12;;;;;;;11.32;7.90;;;15.70;99.90;;;;;;5039705;28;20435;-81
2023/08/14 00:33:38;;;;;;;11.43;7.72;;;15.80;99.90;;;;;;5036757;28;20409;-81
2023/08/14 00:36:07;;;;;;;10.38;7.53;;;15.50;99.90;;;;;;5064812;28;20523;-81
2023/08/14 00:38:33;;;;;;;10.57;7.17;;;15.50;99.90;;;;;;5054741;28;20480;-81
2023/08/14 00:40:58;;;;;;;11.77;7.93;;;15.50;99.90;;;;;;5028202;28;20433;-81
2023/08/14 00:43:24;;;;;;;14.43;7.90;;;15.40;99.90;;;;;;5038062;28;20433;-81
2023/08/14 00:45:54;;;;;;;12.43;7.95;;;15.40;99.90;;;;;;5031573;28;20453;-80
2023/08/14 00:48:20;;;;;;;10.07;7.60;;;15.30;99.90;;;;;;5045814;28;20785;-79
2023/08/14 00:50:46;;;;;;;14.40;7.90;;;15.20;99.90;;;;;;5067417;28;20517;-80
2023/08/14 00:53:14;;;;;;;13.63;8.25;;;15.30;99.90;;;;;;5028215;28;20434;-81
2023/08/14 00:55:40;;;;;;;10.45;7.30;;;15.20;99.90;;;;;;5056780;28;20415;-81
2023/08/14 00:58:07;;;;;;;10.27;7.22;;;15.30;99.90;;;;;;5029548;28;20425;-82
2023/08/14 01:00:34;;;;;;;11.25;7.45;;;15.20;99.90;;;;;;5053952;28;20423;-81
2023/08/14 01:03:01;;;;;;;10.43;6.85;;;15.20;99.90;;;;;;5037613;28;20419;-82
2023/08/14 01:05:27;;;;;;;9.85;7.72;;;15.20;99.90;;;;;;5039088;28;20417;-81
2023/08/14 01:07:53;;;;;;;10.20;7.10;;;15.30;99.90;;;;;;5041842;28;20427;-81
2023/08/14 01:10:20;;;;;;;9.93;7.00;;;15.30;99.90;;;;;;5036591;28;20978;-82
2023/08/14 01:13:04;;;;;;;10.32;7.30;;;15.30;99.90;;;;;;5057682;28;20569;-81
2023/08/14 01:15:33;;;;;;;13.35;7.57;;;14.90;99.90;;;;;;5025002;28;20424;-81
2023/08/14 01:18:03;;;;;;;10.25;7.10;;;15.00;99.90;;;;;;5029977;28;20411;-81
2023/08/14 01:20:32;;;;;;;8.93;6.72;;;15.20;99.90;;;;;;5058062;28;20406;-81
2023/08/14 01:23:32;;;;;;;11.93;7.30;;;15.20;99.90;;;;;;5045345;28;20415;-81
2023/08/14 01:25:58;;;;;;;12.85;7.32;;;15.20;99.90;;;;;;5035785;28;20458;-82
2023/08/14 01:28:24;;;;;;;12.77;7.23;;;15.10;99.90;;;;;;5052745;28;20425;-81
2023/08/14 01:30:49;;;;;;;11.10;7.60;;;15.20;99.90;;;;;;5035654;28;20506;-81
2023/08/14 01:33:15;;;;;;;13.27;7.40;;;15.10;99.90;;;;;;5049016;28;21037;-80
2023/08/14 01:36:03;;;;;;;10.55;7.55;;;15.00;99.90;;;;;;5051112;28;20416;-81
2023/08/14 01:38:37;;;;;;;11.27;7.47;;;15.30;99.90;;;;;;5046712;28;20954;-81
2023/08/14 01:41:18;;;;;;;14.13;6.95;;;15.00;99.90;;;;;;5047887;28;20437;-81
2023/08/14 01:43:54;;;;;;;11.02;7.40;;;15.00;99.90;;;;;;5036058;28;20413;-82
2023/08/14 01:46:21;;;;;;;11.32;7.30;;;15.10;99.90;;;;;;5072815;28;21007;-82
2023/08/14 01:48:50;;;;;;;11.73;7.85;;;15.10;99.90;;;;;;5050563;28;20466;-82
2023/08/14 01:51:18;;;;;;;12.35;8.27;;;15.00;99.90;;;;;;5058597;28;20403;-82
2023/08/14 01:53:45;;;;;;;11.27;7.90;;;14.80;99.90;;;;;;5055116;28;20557;-82
2023/08/14 01:56:11;;;;;;;12.50;8.23;;;14.90;99.90;;;;;;5055220;28;20419;-81
2023/08/14 01:58:37;;;;;;;13.00;8.67;;;15.00;99.90;;;;;;5041532;28;20531;-82
2023/08/14 02:01:02;;;;;;;14.05;9.10;;;15.00;99.90;;;;;;5059302;28;20403;-81
2023/08/14 02:03:28;;;;;;;13.32;8.50;;;14.80;99.90;;;;;;5025864;28;20443;-81
2023/08/14 02:05:54;;;;;;;15.07;8.95;;;14.90;99.90;;;;;;5058217;28;20761;-82
2023/08/14 02:08:19;;;;;;;12.77;8.37;;;14.70;99.90;;;;;;5029970;28;20451;-81
2023/08/14 02:10:46;;;;;;;13.17;8.80;;;14.80;99.90;;;;;;5039650;28;20492;-81
2023/08/14 02:13:12;;;;;;;13.48;8.48;;;14.70;99.90;;;;;;5058348;28;20421;-81
2023/08/14 02:15:38;;;;;;;14.48;9.48;;;14.70;99.90;;;;;;5058971;28;20895;-81
2023/08/14 02:18:04;;;;;;;14.10;9.27;;;14.70;99.90;;;;;;5036944;28;20469;-81
2023/08/14 02:20:30;;;;;;;13.82;9.40;;;14.70;99.90;;;;;;5057343;28;20450;-81
2023/08/14 02:22:55;;;;;;;14.82;9.18;;;14.80;99.90;;;;;;5040718;28;20482;-81
2023/08/14 02:25:21;;;;;;;14.30;9.90;;;14.70;99.90;;;;;;5049292;28;20512;-81
2023/08/14 02:27:47;;;;;;;15.20;10.17;;;;;;;;;;5055516;28;20901;-82
2023/08/14 02:30:13;;;;;;;15.90;10.43;;;14.80;99.90;;;;;;5038406;28;20417;-82
2023/08/14 02:32:39;;;;;;;15.10;10.57;;;14.70;99.90;;;;;;5052060;28;20461;-82
2023/08/14 02:35:05;;;;;;;16.43;11.03;;;14.70;99.90;;;;;;5029855;28;20417;-81
2023/08/14 02:37:31;;;;;;;16.48;10.45;;;;;;;;;;5039318;28;20423;-81
2023/08/14 02:39:56;;;;;;;16.17;11.27;;;14.70;99.90;;;;;;5021477;28;20417;-82
2023/08/14 02:42:22;;;;;;;16.33;11.20;;;14.70;99.90;;;;;;5020943;28;20432;-81
2023/08/14 02:44:50;;;;;;;17.53;11.70;;;14.70;99.90;;;;;;5026860;28;20940;-81
2023/08/14 02:47:17;;;;;;;18.67;11.45;;;14.60;99.90;;;;;;5037713;28;20429;-81
2023/08/14 02:49:42;;;;;;;20.07;12.47;;;14.80;99.90;;;;;;5043116;28;20525;-82
2023/08/14 02:52:08;;;;;;;17.37;12.30;;;14.70;99.90;;;;;;5037052;28;20442;-81
2023/08/14 02:54:34;;;;;;;18.70;12.93;;;14.60;99.90;;;;;;5027338;28;20537;-82
2023/08/14 02:56:59;;;;;;;20.35;11.90;;;14.70;99.90;;;;;;5023150;28;20412;-82
2023/08/14 02:59:25;;;;;;;19.27;13.02;;;14.60;99.90;;;;;;5006606;28;20486;-82
2023/08/14 03:01:51;;;;;;;17.50;11.87;;;14.60;99.90;;;;;;5040055;28;20452;-82
2023/08/14 03:04:17;;;;;;;19.17;13.23;;;14.70;99.90;;;;;;5038106;28;20544;-83
2023/08/14 03:06:43;;;;;;;20.67;13.33;;;;;;;;;;5055983;28;20927;-82
2023/08/14 03:09:09;;;;;;;20.25;12.50;;;14.70;99.90;;;;;;5056925;28;20430;-81
2023/08/14 03:11:35;;;;;;;18.92;12.90;;;14.70;99.90;;;;;;5038291;28;20887;-83
2023/08/14 03:14:01;;;;;;;20.02;12.85;;;14.70;99.90;;;;;;5037248;28;20420;-82
2023/08/14 03:16:26;;;;;;;17.23;12.82;;;14.70;99.90;;;;;;5028969;28;20427;-82
2023/08/14 03:18:52;;;;;;;18.80;12.70;;;14.50;99.90;;;;;;5069973;28;20514;-82
2023/08/14 03:21:18;;;;;;;18.73;13.40;;;14.70;99.90;;;;;;5021140;28;20774;-81
2023/08/14 03:23:45;;;;;;;18.93;13.70;;;;;;;;;;5039501;28;20577;-82
2023/08/14 03:26:11;;;;;;;18.33;13.45;;;14.50;99.90;;;;;;5041071;28;20411;-82
2023/08/14 03:28:36;;;;;;;20.08;14.00;;;14.50;99.90;;;;;;5058692;28;20410;-82
2023/08/14 03:31:02;;;;;;;22.00;14.60;;;14.50;99.90;;;;;;5054349;28;20816;-82
2023/08/14 03:33:28;;;;;;;23.67;14.35;;;14.50;99.90;;;;;;5050144;28;20490;-82
2023/08/14 03:35:54;;;;;;;22.90;15.10;;;14.40;99.90;;;;;;5040332;28;20424;-83
2023/08/14 03:38:20;;;;;;;21.75;15.43;;;;;;;;;;5056110;28;20732;-83
2023/08/14 03:40:46;;;;;;;24.90;16.37;;;14.40;99.90;;;;;;5033210;28;20420;-83
2023/08/14 03:43:12;;;;;;;26.30;15.30;;;14.30;99.90;;;;;;5038959;28;20918;-83
2023/08/14 03:45:37;;;;;;;26.63;16.47;;;14.50;99.90;;;;;;5033048;28;20512;-84
2023/08/14 03:48:04;;;;;;;23.63;15.90;;;;;;;;;;5041587;28;20424;-83
2023/08/14 03:50:29;;;;;;;25.63;16.70;;;14.50;99.90;;;;;;5054956;28;20397;-82
2023/08/14 03:52:57;;;;;;;24.33;16.90;;;;;;;;;;5032652;28;20407;-83
2023/08/14 03:55:22;;;;;;;25.40;17.00;;;14.50;99.90;;;;;;5052128;28;20408;-83
2023/08/14 03:57:48;;;;;;;30.43;18.03;;;14.30;99.90;;;;;;5020515;28;20731;-82
2023/08/14 04:00:14;;;;;;;23.40;17.77;;;14.30;99.90;;;;;;5052631;28;20944;-83
2023/08/14 04:02:40;;;;;;;27.40;17.20;;;14.20;99.90;;;;;;5048247;28;20443;-82
2023/08/14 04:05:06;;;;;;;27.70;17.23;;;14.30;99.90;;;;;;5069309;28;20412;-82
2023/08/14 04:07:32;;;;;;;26.15;17.58;;;14.30;99.90;;;;;;5054453;28;20425;-82
2023/08/14 04:09:58;;;;;;;28.70;17.73;;;14.20;99.90;;;;;;5039161;28;20482;-82
2023/08/14 04:12:24;;;;;;;32.78;18.05;;;14.20;99.90;;;;;;5058413;28;20459;-82
2023/08/14 04:14:50;;;;;;;26.88;17.92;;;14.20;99.90;;;;;;5036760;28;20430;-82
2023/08/14 04:17:15;;;;;;;29.73;18.67;;;14.20;99.90;;;;;;5020759;28;20887;-82
2023/08/14 04:19:41;;;;;;;29.67;17.67;;;14.30;99.90;;;;;;5038641;28;20403;-82
2023/08/14 04:22:07;;;;;;;27.58;18.13;;;14.30;99.90;;;;;;5035964;28;20446;-83
2023/08/14 04:24:33;;;;;;;29.92;18.70;;;14.20;99.90;;;;;;5038777;28;20419;-82
2023/08/14 04:26:59;;;;;;;28.08;18.35;;;14.30;99.90;;;;;;5072144;28;20423;-83
2023/08/14 04:29:24;;;;;;;29.13;18.87;;;14.20;99.90;;;;;;5012252;28;21009;-83
2023/08/14 04:31:50;;;;;;;28.90;18.50;;;14.20;99.90;;;;;;5041276;28;21011;-83
2023/08/14 04:34:16;;;;;;;26.88;18.50;;;14.10;99.90;;;;;;5071597;28;20465;-83
2023/08/14 04:36:42;;;;;;;25.93;18.50;;;14.30;99.90;;;;;;5071917;28;20507;-83
2023/08/14 04:39:08;;;;;;;27.38;18.90;;;;;;;;;;5021488;28;20432;-82
2023/08/14 04:41:34;;;;;;;27.95;17.73;;;;;;;;;;5040113;28;20423;-83
2023/08/14 04:44:00;;;;;;;24.63;18.17;;;;;;;;;;5030935;28;20447;-83
2023/08/14 04:46:30;;;;;;;24.27;18.08;;;;;;;;;;5025959;28;20463;-83
2023/08/14 04:48:56;;;;;;;27.83;17.70;;;;;;;;;;5037767;28;20464;-82
2023/08/14 04:51:22;;;;;;;29.27;17.73;;;14.50;99.90;;;;;;5052981;28;20432;-81
2023/08/14 04:53:47;;;;;;;24.20;17.10;;;14.50;99.90;;;;;;5055764;28;20404;-81
2023/08/14 04:56:13;;;;;;;27.47;17.63;;;14.30;99.90;;;;;;5035453;28;20416;-83
2023/08/14 04:58:39;;;;;;;27.73;17.30;;;14.40;99.90;;;;;;5050144;28;20964;-82
2023/08/14 05:01:04;;;;;;;26.38;16.77;;;14.60;99.90;;;;;;5023244;28;20944;-83
2023/08/14 05:03:30;;;;;;;26.10;16.58;;;14.80;99.90;;;;;;5034039;28;20428;-83
2023/08/14 05:05:56;;;;;;;24.88;17.40;;;14.70;99.90;;;;;;5054245;28;20415;-82
2023/08/14 05:08:21;;;;;;;27.08;16.60;;;14.80;99.90;;;;;;5036279;28;20419;-78
2023/08/14 05:10:51;;;;;;;27.40;17.50;;;;;;;;;;5054606;28;20453;-81
2023/08/14 05:13:18;;;;;;;25.10;17.10;;;14.80;99.90;;;;;;5036088;28;20433;-81
2023/08/14 05:15:46;;;;;;;24.63;16.38;;;14.80;99.90;;;;;;5041467;28;20508;-82
2023/08/14 05:18:12;;;;;;;23.13;16.38;;;14.90;99.90;;;;;;5047911;28;20770;-85
2023/08/14 05:20:38;;;;;;;24.80;17.05;;;14.80;99.90;;;;;;5038399;28;20419;-84
2023/08/14 05:23:05;;;;;;;25.55;16.45;;;;;;;;;;5025599;28;20460;-83
2023/08/14 05:25:31;;;;;;;28.77;17.10;;;15.10;99.90;;;;;;5039847;28;20764;-82
2023/08/14 05:27:57;;;;;;;27.50;17.55;;;14.90;99.90;;;;;;5030110;28;20415;-82
2023/08/14 05:30:22;;;;;;;27.90;16.92;;;15.00;99.90;;;;;;5043854;28;20472;-82
2023/08/14 05:32:48;;;;;;;27.30;16.63;;;15.10;99.90;;;;;;5021700;28;20424;-82
2023/08/14 05:35:16;;;;;;;23.37;16.60;;;15.30;99.90;;;;;;5034446;28;20444;-81
2023/08/14 05:37:42;;;;;;;26.30;17.05;;;15.20;99.90;;;;;;5042718;28;20419;-81
2023/08/14 05:40:10;;;;;;;24.60;16.23;;;15.30;99.90;;;;;;5057454;28;20415;-82
2023/08/14 05:42:36;;;;;;;21.98;16.13;;;15.30;99.90;;;;;;5037254;28;20852;-80
2023/08/14 05:45:02;;;;;;;23.23;15.85;;;15.40;99.90;;;;;;5052741;28;20500;-81
2023/08/14 05:47:28;;;;;;;24.90;15.98;;;15.50;99.90;;;;;;5041118;28;21087;-82
2023/08/14 05:49:54;;;;;;;27.40;15.32;;;15.40;99.90;;;;;;5037724;28;20426;-81
2023/08/14 05:52:19;;;;;;;23.52;15.13;;;15.60;99.90;;;;;;5006685;28;20455;-81
2023/08/14 05:54:45;;;;;;;24.00;15.53;;;15.80;99.90;;;;;;5028720;28;20416;-81
2023/08/14 05:57:10;;;;;;;25.87;15.00;;;15.60;99.90;;;;;;5059930;28;20411;-81
2023/08/14 05:59:36;;;;;;;22.27;15.02;;;15.60;99.90;;;;;;5038343;28;20544;-75
2023/08/14 06:02:02;;;;;;;21.67;14.90;;;15.90;99.90;;;;;;5046414;28;20538;-78
2023/08/14 06:04:28;;;;;;;24.67;14.25;;;15.90;99.90;;;;;;5009076;28;20452;-77
2023/08/14 06:06:53;;;;;;;20.15;14.23;;;16.20;99.90;;;;;;5010672;28;20417;-77
2023/08/14 06:09:19;;;;;;;21.87;14.00;;;16.10;99.90;;;;;;5022749;28;22149;-77
2023/08/14 06:11:45;;;;;;;21.87;14.00;;;16.00;99.90;;;;;;5021175;28;20413;-76
2023/08/14 06:14:11;;;;;;;20.97;13.60;;;16.30;99.90;;;;;;5025208;28;21017;-77
2023/08/14 06:16:37;;;;;;;21.75;13.68;;;16.10;99.90;;;;;;5021486;28;20493;-77
2023/08/14 06:19:03;;;;;;;20.33;13.63;;;16.20;99.90;;;;;;5029918;28;20526;-77
2023/08/14 06:21:29;;;;;;;28.60;13.65;;;16.50;99.90;;;;;;4999524;28;20491;-77
2023/08/14 06:23:54;;;;;;;17.93;12.77;;;16.60;99.90;;;;;;5011015;28;20904;-77
2023/08/14 06:26:21;;;;;;;18.88;12.35;;;16.50;99.90;;;;;;5016019;28;20421;-77
2023/08/14 06:28:46;;;;;;;21.33;12.07;;;16.80;99.90;;;;;;5015706;28;20421;-77
2023/08/14 06:31:12;;;;;;;17.50;12.13;;;16.90;99.90;;;;;;5030184;28;20631;-77
2023/08/14 06:33:38;;;;;;;18.65;12.27;;;16.70;99.90;;;;;;5027385;28;20427;-77
2023/08/14 06:36:04;;;;;;;18.58;12.43;;;18.00;99.90;;;;;;5024870;28;20429;-77
2023/08/14 06:38:30;;;;;;;18.05;11.90;;;16.80;99.90;;;;;;5021247;28;20427;-78
2023/08/14 06:40:55;;;;;;;19.40;11.77;;;17.00;99.90;;;;;;5042951;28;20490;-78
2023/08/14 06:43:21;;;;;;;15.93;11.68;;;16.90;99.90;;;;;;5025040;28;20949;-76
2023/08/14 06:45:47;;;;;;;18.80;11.90;;;17.20;99.90;;;;;;5013687;28;20432;-78
2023/08/14 06:48:14;;;;;;;17.73;11.27;;;17.20;99.90;;;;;;5040739;28;20512;-79
2023/08/14 06:50:40;;;;;;;18.90;11.30;;;17.20;99.90;;;;;;5027443;28;20428;-76
2023/08/14 06:53:05;;;;;;;17.63;11.23;;;17.10;99.90;;;;;;5023436;28;20409;-76
2023/08/14 06:55:31;;;;;;;16.77;11.17;;;17.40;99.90;;;;;;5026022;28;21132;-77
2023/08/14 06:57:57;;;;;;;14.63;10.35;;;17.30;99.90;;;;;;5009130;28;20820;-79
2023/08/14 07:00:22;;;;;;;17.35;10.30;;;17.40;99.90;;;;;;5036936;28;20518;-77
2023/08/14 07:02:48;;;;;;;20.23;10.67;;;17.60;99.90;;;;;;5041519;28;20422;-77
2023/08/14 07:05:15;;;;;;;17.87;10.80;;;17.70;99.90;;;;;;5013431;28;20447;-77
2023/08/14 07:07:41;;;;;;;16.85;10.10;;;17.90;99.90;;;;;;5045639;28;20431;-78
2023/08/14 07:10:07;;;;;;;17.25;9.93;;;17.90;99.90;;;;;;5042054;28;20441;-77
2023/08/14 07:12:33;;;;;;;18.35;9.60;;;18.30;99.90;;;;;;5020680;28;20425;-78
2023/08/14 07:15:00;;;;;;;17.23;9.10;;;18.20;99.90;;;;;;5049112;28;20419;-76
2023/08/14 07:17:26;;;;;;;14.17;9.07;;;18.20;99.90;;;;;;5043397;28;20481;-77
2023/08/14 07:19:53;;;;;;;15.73;9.07;;;18.60;99.90;;;;;;5066816;28;20473;-77
2023/08/14 07:22:18;;;;;;;14.77;9.10;;;18.50;99.90;;;;;;5050004;28;20419;-77
2023/08/14 07:24:44;;;;;;;16.48;8.95;;;18.60;99.90;;;;;;5032627;28;20487;-78
2023/08/14 07:27:10;;;;;;;14.55;8.70;;;18.70;99.90;;;;;;5031306;28;20423;-77
2023/08/14 07:29:36;;;;;;;13.27;8.65;;;18.90;99.90;;;;;;5033415;28;20435;-80
2023/08/14 07:32:01;;;;;;;12.23;8.20;;;19.00;99.90;;;;;;5033718;28;20455;-78
2023/08/14 07:34:28;;;;;;;12.20;7.80;;;19.10;99.90;;;;;;5037015;28;20428;-76
2023/08/14 07:36:53;;;;;;;12.88;7.88;;;18.80;99.90;;;;;;5041325;28;20431;-81
2023/08/14 07:39:19;;;;;;;15.50;7.97;;;18.90;99.90;;;;;;5024283;28;20429;-83
2023/08/14 07:41:45;;;;;;;12.73;7.30;;;19.10;99.90;;;;;;5029088;28;20502;-82
2023/08/14 07:44:11;;;;;;;15.70;8.10;;;19.30;99.90;;;;;;5010014;28;21044;-83
2023/08/14 07:46:36;;;;;;;10.15;7.50;;;19.20;99.90;;;;;;5032174;28;20489;-83
2023/08/14 07:49:02;;;;;;;15.38;7.82;;;18.90;99.90;;;;;;5049344;28;20418;-83
2023/08/14 07:51:28;;;;;;;14.83;7.30;;;19.20;99.90;;;;;;5026203;28;20425;-82
2023/08/14 07:53:54;;;;;;;12.10;7.43;;;19.30;99.90;;;;;;5049607;28;20414;-82
2023/08/14 07:56:19;;;;;;;15.18;7.90;;;19.30;99.90;;;;;;5028777;28;20549;-82
2023/08/14 07:58:45;;;;;;;13.00;7.68;;;19.40;99.90;;;;;;5051691;28;20454;-83
2023/08/14 08:01:11;;;;;;;13.97;8.07;;;19.00;99.90;;;;;;5030759;28;20433;-83
2023/08/14 08:03:36;;;;;;;14.00;7.97;;;19.10;99.90;;;;;;5048120;28;20415;-83
2023/08/14 08:06:02;;;;;;;14.65;7.82;;;19.40;99.90;;;;;;5055136;28;20429;-82
2023/08/14 08:08:28;;;;;;;16.17;7.53;;;19.20;99.90;;;;;;5039278;28;20407;-83
2023/08/14 08:10:54;;;;;;;12.55;7.15;;;19.30;99.90;;;;;;5055791;28;20403;-82
2023/08/14 08:13:19;;;;;;;12.10;7.30;;;19.60;99.90;;;;;;5012092;28;20432;-82
2023/08/14 08:15:45;;;;;;;14.83;7.80;;;19.80;99.90;;;;;;5019401;28;20420;-85
2023/08/14 08:18:11;;;;;;;12.13;6.78;;;19.70;99.90;;;;;;5031012;28;20431;-83
2023/08/14 08:20:37;;;;;;;11.75;5.95;;;19.60;99.90;;;;;;5019184;28;20492;-81
2023/08/14 08:23:03;;;;;;;11.47;7.20;;;20.30;99.90;;;;;;5026800;28;20427;-82
2023/08/14 08:25:29;;;;;;;9.70;6.20;;;20.10;99.90;;;;;;5033231;28;20425;-83
2023/08/14 08:27:55;;;;;;;11.23;5.82;;;20.40;99.90;;;;;;5048739;28;22519;-83
2023/08/14 08:30:21;;;;;;;10.82;5.63;;;20.50;99.90;;;;;;5036335;28;20416;-84
2023/08/14 08:32:47;;;;;;;12.53;6.03;;;20.60;99.90;;;;;;5033913;28;20935;-85
2023/08/14 08:35:13;;;;;;;10.90;5.30;;;20.80;99.90;;;;;;5027631;28;20462;-86
2023/08/14 08:37:39;;;;;;;11.00;5.40;;;20.70;99.90;;;;;;5031601;28;20540;-85
2023/08/14 08:40:06;;;;;;;10.23;4.40;;;20.80;99.90;;;;;;5050114;28;20537;-86
2023/08/14 08:42:32;;;;;;;9.85;4.75;;;21.10;99.90;;;;;;5025086;28;20419;-83
2023/08/14 08:45:03;;;;;;;11.18;4.72;;;21.30;99.90;;;;;;5031009;28;20942;-82
2023/08/14 08:47:31;;;;;;;7.97;4.22;;;21.70;99.90;;;;;;5059748;28;20423;-83
2023/08/14 08:49:59;;;;;;;8.00;3.92;;;22.00;99.90;;;;;;5031053;28;20422;-84
2023/08/14 08:52:24;;;;;;;6.73;3.57;;;21.70;99.90;;;;;;5053503;28;20455;-85
2023/08/14 08:54:51;;;;;;;8.47;4.17;;;22.10;99.90;;;;;;5038440;28;20845;-84
2023/08/14 08:57:18;;;;;;;8.07;3.60;;;21.80;99.90;;;;;;5045081;28;20428;-86
2023/08/14 08:59:44;;;;;;;8.40;3.47;;;21.60;99.90;;;;;;5050291;28;20439;-86
2023/08/14 09:02:10;;;;;;;6.07;2.80;;;22.10;99.90;;;;;;5026569;28;20814;-87
2023/08/14 09:04:36;;;;;;;5.55;2.80;;;22.20;99.90;;;;;;5054087;28;20423;-82
2023/08/14 09:07:02;;;;;;;7.00;2.80;;;22.30;99.90;;;;;;5025851;28;20444;-84
2023/08/14 09:09:28;;;;;;;5.38;2.60;;;22.50;99.90;;;;;;5006173;28;20575;-84
2023/08/14 09:11:54;;;;;;;5.07;2.00;;;22.70;99.90;;;;;;5027185;28;20427;-84
2023/08/14 09:14:22;;;;;;;5.73;2.37;;;22.80;99.90;;;;;;5054732;28;20609;-84
2023/08/14 09:16:52;;;;;;;5.22;2.10;;;23.20;99.90;;;;;;5031007;28;20924;-84
2023/08/14 09:19:18;;;;;;;5.80;2.10;;;22.90;99.90;;;;;;5032750;28;20786;-84
2023/08/14 09:21:45;;;;;;;6.85;2.60;;;23.00;99.90;;;;;;5033131;28;20424;-84
2023/08/14 09:24:14;;;;;;;6.43;2.10;;;23.10;99.90;;;;;;5046228;28;20913;-83
2023/08/14 09:26:44;;;;;;;6.47;2.30;;;22.80;99.90;;;;;;5038429;28;20505;-85
2023/08/14 09:29:13;;;;;;;4.90;2.00;;;23.20;99.90;;;;;;5088043;28;20883;-87
2023/08/14 09:31:43;;;;;;;4.85;1.80;;;23.70;99.90;;;;;;5046071;28;20901;-85
2023/08/14 09:34:18;;;;;;;3.90;1.50;;;23.70;99.90;;;;;;5050625;28;20478;-85
2023/08/14 09:36:44;;;;;;;6.22;2.00;;;23.90;99.90;;;;;;5041431;28;20485;-84
2023/08/14 09:39:10;;;;;;;5.50;1.83;;;24.00;99.90;;;;;;5036258;28;20434;-85
2023/08/14 09:41:37;;;;;;;5.93;1.90;;;23.90;99.90;;;;;;5038474;28;20407;-83
2023/08/14 09:44:03;;;;;;;4.00;2.00;;;23.90;99.90;;;;;;5053512;28;20485;-83
2023/08/14 09:46:29;;;;;;;4.47;1.63;;;24.20;99.90;;;;;;5044174;28;20424;-83
2023/08/14 09:48:55;;;;;;;4.35;1.58;;;24.50;99.90;;;;;;5032155;28;20477;-85
2023/08/14 09:51:21;;;;;;;4.35;1.90;;;24.60;99.90;;;;;;5048823;28;20457;-84
2023/08/14 09:53:51;;;;;;;3.72;1.60;;;24.50;99.90;;;;;;5054881;28;20439;-86
2023/08/14 09:56:17;;;;;;;4.90;1.80;;;24.40;99.90;;;;;;5058367;28;20482;-84
2023/08/14 09:58:44;;;;;;;4.20;1.60;;;24.60;99.90;;;;;;5073489;28;20477;-84
2023/08/14 10:01:13;;;;;;;3.87;1.93;;;24.80;99.90;;;;;;5028059;28;20431;-84
2023/08/14 10:03:41;;;;;;;3.47;1.70;;;24.40;99.90;;;;;;5037047;28;20494;-83
2023/08/14 10:06:12;;;;;;;6.10;1.70;;;24.10;99.90;;;;;;5043245;28;20507;-82
2023/08/14 10:08:45;;;;;;;6.05;1.60;;;24.00;99.90;;;;;;5057046;28;20422;-75
2023/08/14 10:11:15;;;;;;;3.30;1.60;;;24.30;99.90;;;;;;5041969;28;21026;-75
2023/08/14 10:13:54;;;;;;;3.95;1.75;;;24.50;99.90;;;;;;5067265;28;20498;-75
2023/08/14 10:16:27;;;;;;;4.03;1.63;;;24.70;99.90;;;;;;5035201;28;20510;-75
2023/08/14 10:18:57;;;;;;;5.40;1.63;;;24.70;99.90;;;;;;5077652;28;20406;-75
2023/08/14 10:21:31;;;;;;;4.55;1.70;;;24.80;99.90;;;;;;5059392;28;20506;-74
2023/08/14 10:23:59;;;;;;;4.90;1.58;;;24.80;99.90;;;;;;5057754;28;20427;-74
2023/08/14 10:26:25;;;;;;;5.32;1.70;;;25.10;99.90;;;;;;5068094;28;20424;-74
2023/08/14 10:28:52;;;;;;;3.58;1.52;;;25.70;99.90;;;;;;5036353;28;20417;-74
2023/08/14 10:31:19;;;;;;;5.13;1.67;;;25.30;99.90;;;;;;5032010;28;20469;-74
2023/08/14 10:33:46;;;;;;;4.55;1.77;;;25.70;99.90;;;;;;5073523;28;20412;-74
2023/08/14 10:36:19;;;;;;;3.92;1.40;;;25.80;99.90;;;;;;5046545;28;20432;-74
2023/08/14 10:38:46;;;;;;;5.63;1.60;;;26.00;99.90;;;;;;5048097;28;20507;-74
2023/08/14 10:41:16;;;;;;;5.53;1.70;;;25.80;99.90;;;;;;5071073;28;20404;-74
2023/08/14 10:43:42;;;;;;;5.57;1.48;;;25.60;99.90;;;;;;5050869;28;20424;-74
2023/08/14 10:46:14;;;;;;;5.18;1.70;;;25.70;99.90;;;;;;5050500;28;20457;-74
2023/08/14 10:48:41;;;;;;;4.07;1.35;;;25.90;99.90;;;;;;5067362;28;20725;-73
2023/08/14 10:51:09;;;;;;;4.20;1.60;;;26.10;99.90;;;;;;5051234;28;20417;-74
2023/08/14 10:53:35;;;;;;;13.10;1.90;;;26.00;99.90;;;;;;5051350;28;20415;-74
2023/08/14 10:56:01;;;;;;;3.28;1.60;;;26.20;99.90;;;;;;5047805;28;20423;-74
2023/08/14 10:58:33;;;;;;;4.20;1.52;;;26.50;99.90;;;;;;5064850;28;20429;-74
2023/08/14 11:01:00;;;;;;;3.70;1.70;;;26.30;99.90;;;;;;5009959;28;20433;-73
2023/08/14 11:03:27;;;;;;;8.63;1.70;;;26.20;99.90;;;;;;5048613;28;20452;-73
2023/08/14 11:05:53;;;;;;;4.60;1.70;;;26.30;99.90;;;;;;5018976;28;20425;-74
2023/08/14 11:08:20;;;;;;;4.05;1.70;;;26.00;99.90;;;;;;5044342;28;20401;-74
2023/08/14 11:10:48;;;;;;;5.28;1.60;;;26.10;99.90;;;;;;5049436;28;20405;-73
2023/08/14 11:13:14;;;;;;;5.78;1.90;;;26.00;99.90;;;;;;5061706;28;20523;-74
2023/08/14 11:15:41;;;;;;;3.60;1.70;;;26.30;99.90;;;;;;5047257;28;20425;-74
2023/08/14 11:18:11;;;;;;;4.80;1.70;;;26.40;99.90;;;;;;5015893;28;20413;-74
2023/08/14 11:20:38;;;;;;;5.22;1.60;;;26.40;99.90;;;;;;5008801;28;20478;-73
2023/08/14 11:23:05;;;;;;;4.47;1.55;;;25.90;99.90;;;;;;5042690;28;20501;-73
2023/08/14 11:25:31;;;;;;;4.47;1.80;;;25.90;99.90;;;;;;5015277;28;20415;-73
2023/08/14 11:27:57;;;;;;;4.60;1.90;;;25.80;99.90;;;;;;5029341;28;20428;-73
2023/08/14 11:30:25;;;;;;;4.90;1.77;;;25.60;99.90;;;;;;5033558;28;20901;-73
2023/08/14 11:32:52;;;;;;;4.00;1.70;;;25.40;99.90;;;;;;5022584;28;20942;-75
2023/08/14 11:35:18;;;;;;;5.63;1.92;;;25.50;99.90;;;;;;5030617;28;20417;-74
2023/08/14 11:37:46;;;;;;;3.53;1.60;;;25.70;99.90;;;;;;5012108;28;20425;-74
2023/08/14 11:40:15;;;;;;;4.50;1.85;;;25.80;99.90;;;;;;5048022;28;20500;-75
2023/08/14 11:42:42;;;;;;;6.13;2.05;;;26.00;99.90;;;;;;5042121;28;20409;-75
2023/08/14 11:45:08;;;;;;;4.80;1.90;;;25.50;99.90;;;;;;5025053;28;20417;-76
2023/08/14 11:47:47;;;;;;;6.53;2.05;;;25.50;99.90;;;;;;5001666;28;20430;-76
2023/08/14 11:50:13;;;;;;;6.28;2.03;;;25.30;99.90;;;;;;5018853;28;20421;-76
2023/08/14 11:52:39;;;;;;;5.32;1.70;;;25.50;99.90;;;;;;4988602;28;20440;-74
2023/08/14 11:55:06;;;;;;;3.97;1.80;;;25.50;99.90;;;;;;5010658;28;20925;-74
2023/08/14 11:57:33;;;;;;;4.78;1.85;;;26.10;99.90;;;;;;5027597;28;20429;-75
2023/08/14 12:00:00;;;;;;;7.70;2.10;;;26.20;99.90;;;;;;5010052;28;20491;-74
2023/08/14 12:02:28;;;;;;;4.75;1.60;;;25.90;99.90;;;;;;5024639;28;20438;-73
2023/08/14 12:05:00;;;;;;;6.40;2.03;;;26.20;99.90;;;;;;5046877;28;20416;-71
2023/08/14 12:07:26;;;;;;;5.70;1.90;;;25.90;99.90;;;;;;5032199;28;20836;-73
2023/08/14 12:09:56;;;;;;;5.78;2.00;;;25.90;99.90;;;;;;5027952;28;20526;-74
2023/08/14 12:12:24;;;;;;;5.22;1.80;;;26.00;99.90;;;;;;5011406;28;20600;-74
2023/08/14 12:14:51;;;;;;;5.45;2.00;;;26.40;99.90;;;;;;5026311;28;20450;-74
2023/08/14 12:17:20;;;;;;;3.92;1.98;;;26.50;99.90;;;;;;5025819;28;20440;-74
2023/08/14 12:19:50;;;;;;;4.43;1.80;;;26.50;99.90;;;;;;5022261;28;20952;-74
2023/08/14 12:22:20;;;;;;;4.50;1.85;;;26.40;99.90;;;;;;5009571;28;20776;-74
2023/08/14 12:24:46;;;;;;;4.90;1.83;;;26.80;99.90;;;;;;5022940;28;20413;-74
2023/08/14 12:27:18;;;;;;;4.88;1.85;;;27.50;99.90;;;;;;5011234;28;20421;-74
2023/08/14 12:29:45;;;;;;;5.80;2.10;;;27.40;99.90;;;;;;5022554;28;22281;-75
2023/08/14 12:32:11;;;;;;;4.70;1.90;;;27.50;99.90;;;;;;5028605;28;20473;-74
2023/08/14 12:34:37;;;;;;;4.57;1.67;;;27.40;99.90;;;;;;5009145;28;20503;-74
2023/08/14 12:37:04;;;;;;;4.38;1.73;;;27.30;99.90;;;;;;5024623;28;20502;-73
2023/08/14 12:39:30;;;;;;;6.82;1.83;;;27.30;99.90;;;;;;5018873;28;20454;-74